createdAt,value
2023-04-13T00:01:36.676Z,96550.38
2023-04-13T00:05:39.638Z,96552.13
2023-04-13T00:09:41.782Z,96554.75
2023-04-13T00:13:47.638Z,96562.63
2023-04-13T00:17:49.712Z,96561.09
2023-04-13T00:21:55.064Z,96568.28
2023-04-13T00:25:57.045Z,96569.50
2023-04-13T00:29:59.076Z,96566.34
2023-04-13T00:34:01.362Z,96567.66
2023-04-13T00:38:04.318Z,96563.50
2023-04-13T00:42:08.614Z,96567.34
2023-04-13T00:46:11.028Z,96560.66
2023-04-13T00:50:14.001Z,96550.59
2023-04-13T00:54:16.860Z,96552.50
2023-04-13T00:58:18.929Z,96551.59
2023-04-13T01:02:26.529Z,96553.38
2023-04-13T01:06:33.865Z,96552.50
2023-04-13T01:10:43.138Z,96561.09
2023-04-13T01:14:55.023Z,96558.56
2023-04-13T01:18:57.435Z,96552.94
2023-04-13T01:23:03.082Z,96559.28
2023-04-13T01:27:12.940Z,96560.06
2023-04-13T01:31:17.171Z,96553.03
2023-04-13T01:35:21.084Z,96552.94
2023-04-13T01:39:25.458Z,96555.34
2023-04-13T01:43:37.412Z,96550.13
2023-04-13T01:47:59.833Z,96552.94
2023-04-13T01:52:11.991Z,96548.97
2023-04-13T01:56:19.153Z,96541.44
2023-04-13T02:00:22.872Z,96546.78
2023-04-13T02:04:25.477Z,96554.66
2023-04-13T02:08:27.752Z,96550.88
2023-04-13T02:12:29.788Z,96558.03
2023-04-13T02:16:34.402Z,96552.97
2023-04-13T02:20:43.484Z,96545.13
2023-04-13T02:24:45.485Z,96544.84
2023-04-13T02:28:50.073Z,96538.63
2023-04-13T02:32:52.746Z,96540.06
2023-04-13T02:36:55.679Z,96534.72
2023-04-13T02:41:02.000Z,96539.63
2023-04-13T02:45:06.531Z,96535.13
2023-04-13T02:49:09.535Z,96548.13
2023-04-13T02:53:17.992Z,96544.53
2023-04-13T02:57:25.095Z,96542.97
2023-04-13T03:01:29.464Z,96539.63
2023-04-13T03:05:31.924Z,96541.00
2023-04-13T03:09:34.555Z,96540.56
2023-04-13T03:13:36.946Z,96546.78
2023-04-13T03:17:43.961Z,96547.47
2023-04-13T03:21:50.105Z,96553.16
2023-04-13T03:25:56.010Z,96563.25
2023-04-13T03:29:58.839Z,96558.69
2023-04-13T03:34:02.328Z,96568.78
2023-04-13T03:38:04.984Z,96557.19
2023-04-13T03:42:11.843Z,96565.50
2023-04-13T03:46:19.536Z,96560.25
2023-04-13T03:50:21.707Z,96572.25
2023-04-13T03:54:25.849Z,96564.09
2023-04-13T03:58:28.542Z,96567.44
2023-04-13T04:02:31.030Z,96567.44
2023-04-13T04:06:33.514Z,96575.72
2023-04-13T04:10:44.447Z,96573.19
2023-04-13T04:14:47.509Z,96578.34
2023-04-13T04:18:54.635Z,96576.66
2023-04-13T04:23:00.945Z,96561.94
2023-04-13T04:27:07.694Z,96564.47
2023-04-13T04:31:12.936Z,96565.31
2023-04-13T04:35:25.991Z,96562.63
2023-04-13T04:39:32.833Z,96571.34
2023-04-13T04:43:46.114Z,96577.38
2023-04-13T04:47:50.429Z,96585.19
2023-04-13T04:51:57.420Z,96594.69
2023-04-13T04:55:59.916Z,96593.78
2023-04-13T05:00:15.836Z,96594.53
2023-04-13T05:04:23.388Z,96596.22
2023-04-13T05:08:28.545Z,96594.47
2023-04-13T05:12:30.945Z,96598.59
2023-04-13T05:16:34.239Z,96600.91
2023-04-13T05:20:43.134Z,96591.19
2023-04-13T05:24:45.553Z,96592.81
2023-04-13T05:28:49.855Z,96598.84
2023-04-13T05:32:52.180Z,96605.72
2023-04-13T05:36:55.490Z,96602.84
2023-04-13T05:40:58.646Z,96606.28
2023-04-13T05:45:01.383Z,96606.66
2023-04-13T05:49:04.394Z,96623.50
2023-04-13T05:53:06.678Z,96622.69
2023-04-13T05:57:20.920Z,96630.22
2023-04-13T06:01:25.812Z,96628.22
2023-04-13T06:05:31.831Z,96638.66
2023-04-13T06:09:33.877Z,96638.66
2023-04-13T06:13:36.324Z,96646.47
2023-04-13T06:17:38.379Z,96650.59
2023-04-13T06:21:41.094Z,96652.31
2023-04-13T06:25:43.463Z,96655.81
2023-04-13T06:29:47.554Z,96658.28
2023-04-13T06:33:50.416Z,96655.22
2023-04-13T06:38:00.306Z,96655.13
2023-04-13T06:42:07.971Z,96664.22
2023-04-13T06:46:35.702Z,96663.78
2023-04-13T06:50:44.650Z,96689.50
2023-04-13T06:54:47.310Z,96686.16
2023-04-13T06:59:04.918Z,96682.28
2023-04-13T07:03:07.235Z,96696.41
2023-04-13T07:07:12.323Z,96695.69
2023-04-13T07:11:14.867Z,96689.38
2023-04-13T07:15:17.288Z,96700.16
2023-04-13T07:19:23.635Z,96693.75
2023-04-13T07:23:26.557Z,96697.88
2023-04-13T07:27:28.673Z,96685.22
2023-04-13T07:31:31.325Z,96689.06
2023-04-13T07:35:33.660Z,96686.88
2023-04-13T07:39:35.908Z,96698.19
2023-04-13T07:43:38.643Z,96695.09
2023-04-13T07:47:45.253Z,96703.41
2023-04-13T07:51:47.490Z,96725.81
2023-04-13T07:55:51.121Z,96718.75
2023-04-13T07:59:53.381Z,96722.97
2023-04-13T08:03:55.707Z,96729.38
2023-04-13T08:07:59.645Z,96739.16
2023-04-13T08:12:03.621Z,96738.09
2023-04-13T08:16:06.404Z,96737.25
2023-04-13T08:20:09.312Z,96744.38
2023-04-13T08:24:11.562Z,96748.22
2023-04-13T08:28:13.611Z,96762.28
2023-04-13T08:32:16.234Z,96754.19
2023-04-13T08:36:18.646Z,96758.63
2023-04-13T08:40:26.663Z,96761.72
2023-04-13T08:44:32.650Z,96765.16
2023-04-13T08:48:52.651Z,96756.50
2023-04-13T08:52:59.461Z,96771.81
2023-04-13T08:57:02.805Z,96768.28
2023-04-13T09:01:06.395Z,96784.66
2023-04-13T09:05:15.834Z,96781.00
2023-04-13T09:09:22.684Z,96791.84
2023-04-13T09:13:27.343Z,96787.00
2023-04-13T09:17:35.124Z,96787.28
2023-04-13T09:21:39.457Z,96794.88
2023-04-13T09:25:42.129Z,96797.84
2023-04-13T09:29:55.528Z,96795.22
2023-04-13T09:33:57.707Z,96803.00
2023-04-13T09:38:00.127Z,96811.91
2023-04-13T09:42:10.188Z,96807.50
2023-04-13T09:46:14.037Z,96803.09
2023-04-13T09:50:23.713Z,96810.19
2023-04-13T09:54:25.902Z,96812.81
2023-04-13T09:58:28.726Z,96817.19
2023-04-13T10:02:31.009Z,96810.97
2023-04-13T10:06:40.815Z,96819.69
2023-04-13T10:10:42.897Z,96819.09
2023-04-13T10:14:48.857Z,96824.59
2023-04-13T10:19:23.378Z,96820.66
2023-04-13T10:23:28.032Z,96821.66
2023-04-13T10:27:30.049Z,96827.88
2023-04-13T10:31:51.381Z,96834.94
2023-04-13T10:35:58.216Z,96822.53
2023-04-13T10:40:09.011Z,96844.97
2023-04-13T10:44:11.189Z,96827.78
2023-04-13T10:48:21.291Z,96830.09
2023-04-13T10:52:23.284Z,96821.75
2023-04-13T10:56:26.100Z,96821.91
2023-04-13T11:00:44.621Z,96818.78
2023-04-13T11:04:48.435Z,96818.44
2023-04-13T11:08:59.624Z,96819.34
2023-04-13T11:13:02.025Z,96817.34
2023-04-13T11:17:08.342Z,96812.81
2023-04-13T11:21:17.074Z,96805.91
2023-04-13T11:25:20.402Z,96807.59
2023-04-13T11:29:22.505Z,96810.47
2023-04-13T11:33:29.985Z,96819.91
2023-04-13T11:37:38.126Z,96821.34
2023-04-13T11:41:41.296Z,96824.44
2023-04-13T11:45:44.427Z,96833.59
2023-04-13T11:49:48.056Z,96861.63
2023-04-13T11:53:51.366Z,96848.63
2023-04-13T11:57:54.164Z,96835.06
2023-04-13T12:02:02.862Z,96834.44
2023-04-13T12:06:07.715Z,96834.81
2023-04-13T12:10:11.160Z,96840.72
2023-04-13T12:18:31.158Z,96813.75
2023-04-13T12:22:52.395Z,96815.50
2023-04-13T12:27:17.867Z,96804.78
2023-04-13T12:31:21.257Z,96813.84
2023-04-13T12:35:23.422Z,96825.97
2023-04-13T12:39:25.766Z,96872.81
2023-04-13T12:43:28.188Z,96892.81
2023-04-13T12:47:30.319Z,96903.63
2023-04-13T12:51:32.347Z,96898.34
2023-04-13T12:55:34.379Z,96891.09
2023-04-13T12:59:36.390Z,96885.94
2023-04-13T13:03:38.491Z,96892.66
2023-04-13T13:07:40.574Z,96898.78
2023-04-13T13:11:42.620Z,96904.38
2023-04-13T13:15:44.707Z,96905.94
2023-04-13T13:19:46.709Z,96907.09
2023-04-13T13:23:49.608Z,96906.94
2023-04-13T13:28:10.194Z,96913.53
2023-04-13T13:32:14.157Z,96909.41
2023-04-13T13:36:16.647Z,96917.25
2023-04-13T13:40:18.711Z,96922.88
2023-04-13T13:44:20.974Z,96912.91
2023-04-13T13:48:23.990Z,96912.38
2023-04-13T13:52:35.002Z,96911.81
2023-04-13T13:56:39.292Z,96907.75
2023-04-13T14:00:42.053Z,96905.03
2023-04-13T14:04:44.134Z,96898.78
2023-04-13T14:08:46.661Z,96897.66
2023-04-13T14:12:50.800Z,96906.34
2023-04-13T14:16:53.091Z,96904.81
2023-04-13T14:20:57.325Z,96912.81
2023-04-13T14:24:59.412Z,96915.88
2023-04-13T14:29:01.508Z,96910.56
2023-04-13T14:33:04.229Z,96920.88
2023-04-13T14:37:06.516Z,96928.59
2023-04-13T14:41:08.557Z,96936.09
2023-04-13T14:45:12.294Z,96936.66
2023-04-13T14:49:16.506Z,96938.00
2023-04-13T14:53:18.579Z,96957.06
2023-04-13T14:57:20.825Z,96939.78
2023-04-13T15:01:24.276Z,96939.16
2023-04-13T15:05:26.558Z,96948.50
2023-04-13T15:09:28.665Z,96951.41
2023-04-13T15:13:30.774Z,96952.13
2023-04-13T15:17:32.918Z,96944.91
2023-04-13T15:21:36.137Z,96945.25
2023-04-13T15:25:38.439Z,96960.81
2023-04-13T15:29:40.481Z,96960.97
2023-04-13T15:33:42.932Z,96961.94
2023-04-13T15:37:44.914Z,96965.94
2023-04-13T15:41:46.942Z,96973.69
2023-04-13T15:45:49.001Z,96973.34
2023-04-13T15:49:51.048Z,96977.34
2023-04-13T15:53:53.082Z,96979.38
2023-04-13T15:57:56.901Z,96982.09
2023-04-13T16:01:59.082Z,96984.09
2023-04-13T16:06:01.979Z,96983.91
2023-04-13T16:10:04.407Z,96982.72
2023-04-13T16:14:09.274Z,96969.16
2023-04-13T16:18:12.079Z,96980.09
2023-04-13T16:22:14.104Z,96978.22
2023-04-13T16:26:16.102Z,96982.00
2023-04-13T16:30:20.750Z,96992.34
2023-04-13T16:34:26.580Z,96992.22
2023-04-13T16:38:28.902Z,96997.34
2023-04-13T16:42:31.519Z,97000.59
2023-04-13T16:46:33.597Z,97000.13
2023-04-13T16:50:35.853Z,97006.50
2023-04-13T16:54:42.693Z,97019.78
2023-04-13T16:58:44.718Z,97014.94
2023-04-13T17:02:47.907Z,97021.97
2023-04-13T17:06:50.022Z,97034.50
2023-04-13T17:10:52.371Z,97036.97
2023-04-13T17:14:54.464Z,97042.94
2023-04-13T17:18:56.629Z,97051.41
2023-04-13T17:22:58.744Z,97045.69
2023-04-13T17:27:00.791Z,97045.28
2023-04-13T17:31:02.797Z,97062.06
2023-04-13T17:35:06.068Z,97069.84
2023-04-13T17:39:08.338Z,97075.28
2023-04-13T17:43:10.787Z,97094.53
2023-04-13T17:47:14.052Z,97086.25
2023-04-13T17:51:16.048Z,97084.28
2023-04-13T17:55:18.061Z,97087.59
2023-04-13T17:59:20.203Z,97094.16
2023-04-13T18:03:22.354Z,97091.81
2023-04-13T18:07:26.211Z,97093.81
2023-04-13T18:11:28.222Z,97098.44
2023-04-13T18:15:30.321Z,97103.06
2023-04-13T18:19:32.585Z,97100.03
2023-04-13T18:23:34.596Z,97104.56
2023-04-13T18:27:36.625Z,97111.94
2023-04-13T18:31:39.189Z,97107.88
2023-04-13T18:35:42.759Z,97125.09
2023-04-13T18:39:45.041Z,97127.03
2023-04-13T18:43:47.125Z,97137.13
2023-04-13T18:47:49.129Z,97145.44
2023-04-13T18:51:51.229Z,97152.50
2023-04-13T18:55:53.314Z,97164.25
2023-04-13T18:59:56.789Z,97158.50
2023-04-13T19:03:59.098Z,97163.72
2023-04-13T19:08:03.861Z,97172.94
2023-04-13T19:12:07.256Z,97175.09
2023-04-13T19:16:09.293Z,97178.69
2023-04-13T19:20:11.643Z,97171.22
2023-04-13T19:24:13.851Z,97178.78
2023-04-13T19:28:15.982Z,97175.22
2023-04-13T19:32:18.039Z,97171.84
2023-04-13T19:36:20.608Z,97173.84
2023-04-13T19:40:23.208Z,97179.56
2023-04-13T19:44:25.980Z,97176.63
2023-04-13T19:48:28.061Z,97185.59
2023-04-13T19:52:30.302Z,97184.75
2023-04-13T19:56:36.381Z,97182.34
2023-04-13T20:00:38.475Z,97166.03
2023-04-13T20:04:40.774Z,97175.72
2023-04-13T20:08:44.508Z,97175.16
2023-04-13T20:12:46.618Z,97168.81
2023-04-13T20:16:48.760Z,97172.19
2023-04-13T20:20:51.173Z,97180.13
2023-04-13T20:24:53.197Z,97193.66
2023-04-13T20:29:01.790Z,97200.53
2023-04-13T20:33:05.624Z,97196.38
2023-04-13T20:37:10.122Z,97182.66
2023-04-13T20:41:13.771Z,97183.88
2023-04-13T20:45:17.588Z,97181.63
2023-04-13T20:49:23.994Z,97172.22
2023-04-13T20:53:25.999Z,97172.50
2023-04-13T20:57:28.271Z,97170.66
2023-04-13T21:01:30.499Z,97170.63
2023-04-13T21:05:33.098Z,97167.69
2023-04-13T21:09:35.123Z,97162.34
2023-04-13T21:13:37.128Z,97164.69
2023-04-13T21:17:39.302Z,97169.63
2023-04-13T21:21:41.462Z,97162.47
2023-04-13T21:25:44.462Z,97163.63
2023-04-13T21:29:46.624Z,97164.56
2023-04-13T21:33:48.759Z,97173.03
2023-04-13T21:37:50.840Z,97173.56
2023-04-13T21:41:52.913Z,97183.13
2023-04-13T21:45:55.387Z,97174.13
2023-04-13T21:49:57.519Z,97173.66
2023-04-13T21:53:59.672Z,97182.47
2023-04-13T21:58:01.744Z,97184.50
2023-04-13T22:02:03.946Z,97190.50
2023-04-13T22:06:07.862Z,97187.69
2023-04-13T22:10:10.538Z,97198.78
2023-04-13T22:14:12.571Z,97187.75
2023-04-13T22:18:14.680Z,97185.91
2023-04-13T22:22:16.806Z,97185.72
2023-04-13T22:26:18.902Z,97191.75
2023-04-13T22:30:21.179Z,97193.50
2023-04-13T22:34:23.302Z,97192.66
2023-04-13T22:38:25.362Z,97192.75
2023-04-13T22:42:28.056Z,97196.16
2023-04-13T22:46:30.679Z,97202.22
2023-04-13T22:50:32.768Z,97205.63
2023-04-13T22:54:34.834Z,97217.88
2023-04-13T22:58:36.918Z,97213.72
2023-04-13T23:02:39.283Z,97212.63
2023-04-13T23:06:41.632Z,97217.53
2023-04-13T23:10:43.729Z,97213.28
2023-04-13T23:14:46.059Z,97215.53
2023-04-13T23:18:48.470Z,97220.78
2023-04-13T23:22:50.645Z,97223.44
2023-04-13T23:26:52.674Z,97233.72
2023-04-13T23:31:10.880Z,97247.91
2023-04-13T23:35:13.100Z,97246.56
2023-04-13T23:39:15.227Z,97246.13
2023-04-13T23:43:17.236Z,97250.13
2023-04-13T23:47:19.352Z,97255.34
2023-04-13T23:51:21.779Z,97257.84
2023-04-13T23:55:23.880Z,97254.94
2023-04-13T23:59:25.939Z,97261.34
